sensor_id;sensor_type;location;lat;lon;timestamp;temperature;humidity
47162;DHT22;32921;53.256;8.198;2023-05-10T00:01:28;14.80;99.90
47162;DHT22;32921;53.256;8.198;2023-05-10T00:03:53;14.70;99.90
47162;DHT22;32921;53.256;8.198;2023-05-10T00:06:19;14.70;99.90
47162;DHT22;32921;53.256;8.198;2023-05-10T00:08:45;14.70;99.90
47162;DHT22;32921;53.256;8.198;2023-05-10T00:11:11;14.70;99.90
47162;DHT22;32921;53.256;8.198;2023-05-10T00:13:36;14.60;99.90
47162;DHT22;32921;53.256;8.198;2023-05-10T00:16:02;14.60;99.90
47162;DHT22;32921;53.256;8.198;2023-05-10T00:18:27;14.60;99.90
47162;DHT22;32921;53.256;8.198;2023-05-10T00:20:53;14.60;99.90
47162;DHT22;32921;53.256;8.198;2023-05-10T00:23:18;14.50;99.90
47162;DHT22;32921;53.256;8.198;2023-05-10T00:25:44;14.60;99.90
47162;DHT22;32921;53.256;8.198;2023-05-10T00:28:09;14.60;99.90
47162;DHT22;32921;53.256;8.198;2023-05-10T00:30:35;14.60;99.90
47162;DHT22;32921;53.256;8.198;2023-05-10T00:33:00;14.60;99.90
47162;DHT22;32921;53.256;8.198;2023-05-10T00:35:26;14.60;99.90
47162;DHT22;32921;53.256;8.198;2023-05-10T00:37:52;14.50;99.90
47162;DHT22;32921;53.256;8.198;2023-05-10T00:40:17;14.60;99.90
47162;DHT22;32921;53.256;8.198;2023-05-10T00:42:43;14.60;99.90
47162;DHT22;32921;53.256;8.198;2023-05-10T00:45:08;14.60;99.90
47162;DHT22;32921;53.256;8.198;2023-05-10T00:47:34;14.50;99.90
47162;DHT22;32921;53.256;8.198;2023-05-10T00:50:00;14.50;99.90
47162;DHT22;32921;53.256;8.198;2023-05-10T00:52:27;14.50;99.90
47162;DHT22;32921;53.256;8.198;2023-05-10T00:54:54;14.50;99.90
47162;DHT22;32921;53.256;8.198;2023-05-10T00:57:20;14.50;99.90
47162;DHT22;32921;53.256;8.198;2023-05-10T00:59:46;14.60;99.90
47162;DHT22;32921;53.256;8.198;2023-05-10T01:02:11;14.70;99.90
47162;DHT22;32921;53.256;8.198;2023-05-10T01:04:38;14.60;99.90
47162;DHT22;32921;53.256;8.198;2023-05-10T01:07:04;14.60;99.90
47162;DHT22;32921;53.256;8.198;2023-05-10T01:09:30;14.50;99.90
47162;DHT22;32921;53.256;8.198;2023-05-10T01:11:56;14.50;99.90
47162;DHT22;32921;53.256;8.198;2023-05-10T01:14:22;14.60;99.90
47162;DHT22;32921;53.256;8.198;2023-05-10T01:16:49;14.60;99.90
47162;DHT22;32921;53.256;8.198;2023-05-10T01:19:22;14.60;99.90
47162;DHT22;32921;53.256;8.198;2023-05-10T01:28:27;14.50;99.90
47162;DHT22;32921;53.256;8.198;2023-05-10T01:41:59;14.40;99.90
47162;DHT22;32921;53.256;8.198;2023-05-10T01:44:34;14.50;99.90
47162;DHT22;32921;53.256;8.198;2023-05-10T01:47:09;14.40;99.90
47162;DHT22;32921;53.256;8.198;2023-05-10T01:49:45;14.40;99.90
47162;DHT22;32921;53.256;8.198;2023-05-10T01:52:14;14.40;99.90
47162;DHT22;32921;53.256;8.198;2023-05-10T01:55:04;14.40;99.90
47162;DHT22;32921;53.256;8.198;2023-05-10T01:57:35;14.40;99.90
47162;DHT22;32921;53.256;8.198;2023-05-10T02:00:02;14.30;99.90
47162;DHT22;32921;53.256;8.198;2023-05-10T02:02:37;14.30;99.90
47162;DHT22;32921;53.256;8.198;2023-05-10T02:05:05;14.30;99.90
47162;DHT22;32921;53.256;8.198;2023-05-10T02:07:34;14.30;99.90
47162;DHT22;32921;53.256;8.198;2023-05-10T02:10:02;14.20;99.90
47162;DHT22;32921;53.256;8.198;2023-05-10T02:12:28;14.20;99.90
47162;DHT22;32921;53.256;8.198;2023-05-10T02:14:55;14.10;99.90
47162;DHT22;32921;53.256;8.198;2023-05-10T02:17:23;14.10;99.90
47162;DHT22;32921;53.256;8.198;2023-05-10T02:19:50;14.10;99.90
47162;DHT22;32921;53.256;8.198;2023-05-10T02:22:17;14.00;99.90
47162;DHT22;32921;53.256;8.198;2023-05-10T02:24:43;14.00;99.90
47162;DHT22;32921;53.256;8.198;2023-05-10T02:27:10;14.00;99.90
47162;DHT22;32921;53.256;8.198;2023-05-10T02:29:36;14.00;99.90
47162;DHT22;32921;53.256;8.198;2023-05-10T02:32:02;14.10;99.90
47162;DHT22;32921;53.256;8.198;2023-05-10T02:34:28;14.20;99.90
47162;DHT22;32921;53.256;8.198;2023-05-10T02:36:55;14.10;99.90
47162;DHT22;32921;53.256;8.198;2023-05-10T02:39:22;14.20;99.90
47162;DHT22;32921;53.256;8.198;2023-05-10T02:41:49;14.10;99.90
47162;DHT22;32921;53.256;8.198;2023-05-10T02:44:18;14.10;99.90
47162;DHT22;32921;53.256;8.198;2023-05-10T02:46:44;14.10;99.90
47162;DHT22;32921;53.256;8.198;2023-05-10T02:49:10;14.20;99.90
47162;DHT22;32921;53.256;8.198;2023-05-10T02:51:40;14.20;99.90
47162;DHT22;32921;53.256;8.198;2023-05-10T02:54:30;14.20;99.90
47162;DHT22;32921;53.256;8.198;2023-05-10T02:56:58;14.20;99.90
47162;DHT22;32921;53.256;8.198;2023-05-10T02:59:26;14.20;99.90
47162;DHT22;32921;53.256;8.198;2023-05-10T03:01:51;14.20;99.90
47162;DHT22;32921;53.256;8.198;2023-05-10T03:04:17;14.30;99.90
47162;DHT22;32921;53.256;8.198;2023-05-10T03:06:43;14.20;99.90
47162;DHT22;32921;53.256;8.198;2023-05-10T03:09:09;14.20;99.90
47162;DHT22;32921;53.256;8.198;2023-05-10T03:16:50;14.20;99.90
47162;DHT22;32921;53.256;8.198;2023-05-10T03:19:24;14.20;99.90
47162;DHT22;32921;53.256;8.198;2023-05-10T03:21:53;14.20;99.90
47162;DHT22;32921;53.256;8.198;2023-05-10T03:24:26;14.30;99.90
47162;DHT22;32921;53.256;8.198;2023-05-10T03:26:55;14.40;99.90
47162;DHT22;32921;53.256;8.198;2023-05-10T03:29:22;14.40;99.90
47162;DHT22;32921;53.256;8.198;2023-05-10T03:31:48;14.40;99.90
47162;DHT22;32921;53.256;8.198;2023-05-10T03:34:14;14.40;99.90
47162;DHT22;32921;53.256;8.198;2023-05-10T03:36:39;14.00;99.90
47162;DHT22;32921;53.256;8.198;2023-05-10T03:39:05;13.60;99.90
47162;DHT22;32921;53.256;8.198;2023-05-10T03:41:30;13.40;99.90
47162;DHT22;32921;53.256;8.198;2023-05-10T03:43:56;13.40;99.90
47162;DHT22;32921;53.256;8.198;2023-05-10T03:46:21;13.40;99.90
47162;DHT22;32921;53.256;8.198;2023-05-10T03:48:47;13.30;99.90
47162;DHT22;32921;53.256;8.198;2023-05-10T03:51:12;13.20;99.90
47162;DHT22;32921;53.256;8.198;2023-05-10T03:53:38;13.20;99.90
47162;DHT22;32921;53.256;8.198;2023-05-10T03:56:04;13.20;99.90
47162;DHT22;32921;53.256;8.198;2023-05-10T03:58:29;13.20;99.90
47162;DHT22;32921;53.256;8.198;2023-05-10T04:00:55;13.20;99.90
47162;DHT22;32921;53.256;8.198;2023-05-10T04:03:21;13.10;99.90
47162;DHT22;32921;53.256;8.198;2023-05-10T04:05:46;13.20;99.90
47162;DHT22;32921;53.256;8.198;2023-05-10T04:08:12;13.20;99.90
47162;DHT22;32921;53.256;8.198;2023-05-10T04:10:37;13.20;99.90
47162;DHT22;32921;53.256;8.198;2023-05-10T04:13:03;13.30;99.90
47162;DHT22;32921;53.256;8.198;2023-05-10T04:15:29;13.30;99.90
47162;DHT22;32921;53.256;8.198;2023-05-10T04:17:54;13.20;99.90
47162;DHT22;32921;53.256;8.198;2023-05-10T04:20:20;13.30;99.90
47162;DHT22;32921;53.256;8.198;2023-05-10T04:22:45;13.40;99.90
47162;DHT22;32921;53.256;8.198;2023-05-10T04:25:11;13.40;99.90
47162;DHT22;32921;53.256;8.198;2023-05-10T04:27:36;13.30;99.90
47162;DHT22;32921;53.256;8.198;2023-05-10T04:30:02;13.20;99.90
47162;DHT22;32921;53.256;8.198;2023-05-10T04:32:28;13.10;99.90
47162;DHT22;32921;53.256;8.198;2023-05-10T04:34:54;13.10;99.90
47162;DHT22;32921;53.256;8.198;2023-05-10T04:37:20;13.20;99.90
47162;DHT22;32921;53.256;8.198;2023-05-10T04:39:46;13.30;99.90
47162;DHT22;32921;53.256;8.198;2023-05-10T04:42:12;13.30;99.90
47162;DHT22;32921;53.256;8.198;2023-05-10T04:44:40;13.30;99.90
47162;DHT22;32921;53.256;8.198;2023-05-10T04:47:05;13.40;99.90
47162;DHT22;32921;53.256;8.198;2023-05-10T04:49:31;13.40;99.90
47162;DHT22;32921;53.256;8.198;2023-05-10T04:51:57;13.40;99.90
47162;DHT22;32921;53.256;8.198;2023-05-10T04:54:23;13.30;99.90
47162;DHT22;32921;53.256;8.198;2023-05-10T04:56:48;13.30;99.90
47162;DHT22;32921;53.256;8.198;2023-05-10T04:59:14;13.20;99.90
47162;DHT22;32921;53.256;8.198;2023-05-10T05:01:39;13.20;99.90
47162;DHT22;32921;53.256;8.198;2023-05-10T05:04:05;13.20;99.90
47162;DHT22;32921;53.256;8.198;2023-05-10T05:06:32;13.30;99.90
47162;DHT22;32921;53.256;8.198;2023-05-10T05:08:57;13.30;99.90
47162;DHT22;32921;53.256;8.198;2023-05-10T05:11:23;13.30;99.90
47162;DHT22;32921;53.256;8.198;2023-05-10T05:13:48;13.30;99.90
47162;DHT22;32921;53.256;8.198;2023-05-10T05:16:14;13.30;99.90
47162;DHT22;32921;53.256;8.198;2023-05-10T05:18:40;13.20;99.90
47162;DHT22;32921;53.256;8.198;2023-05-10T05:21:19;13.20;99.90
47162;DHT22;32921;53.256;8.198;2023-05-10T05:23:45;13.20;99.90
47162;DHT22;32921;53.256;8.198;2023-05-10T05:26:10;13.20;99.90
47162;DHT22;32921;53.256;8.198;2023-05-10T05:28:36;13.20;99.90
47162;DHT22;32921;53.256;8.198;2023-05-10T05:31:06;13.30;99.90
47162;DHT22;32921;53.256;8.198;2023-05-10T05:33:33;13.30;99.90
47162;DHT22;32921;53.256;8.198;2023-05-10T05:36:01;13.30;99.90
47162;DHT22;32921;53.256;8.198;2023-05-10T05:38:26;13.40;99.90
47162;DHT22;32921;53.256;8.198;2023-05-10T05:40:52;13.30;99.90
47162;DHT22;32921;53.256;8.198;2023-05-10T05:43:17;13.40;99.90
47162;DHT22;32921;53.256;8.198;2023-05-10T05:45:43;13.40;99.90
47162;DHT22;32921;53.256;8.198;2023-05-10T05:48:08;13.50;99.90
47162;DHT22;32921;53.256;8.198;2023-05-10T05:50:34;13.40;99.90
47162;DHT22;32921;53.256;8.198;2023-05-10T05:52:59;13.40;99.90
47162;DHT22;32921;53.256;8.198;2023-05-10T05:55:25;13.40;99.90
47162;DHT22;32921;53.256;8.198;2023-05-10T05:57:51;13.50;99.90
47162;DHT22;32921;53.256;8.198;2023-05-10T06:00:17;13.60;99.90
47162;DHT22;32921;53.256;8.198;2023-05-10T06:02:42;13.60;99.90
47162;DHT22;32921;53.256;8.198;2023-05-10T06:05:08;13.60;99.90
47162;DHT22;32921;53.256;8.198;2023-05-10T06:07:34;13.60;99.90
47162;DHT22;32921;53.256;8.198;2023-05-10T06:09:59;13.70;99.90
47162;DHT22;32921;53.256;8.198;2023-05-10T06:12:25;13.90;99.90
47162;DHT22;32921;53.256;8.198;2023-05-10T06:14:50;13.90;99.90
47162;DHT22;32921;53.256;8.198;2023-05-10T06:17:16;14.00;99.90
47162;DHT22;32921;53.256;8.198;2023-05-10T06:19:41;14.00;99.90
47162;DHT22;32921;53.256;8.198;2023-05-10T06:22:07;14.00;99.90
47162;DHT22;32921;53.256;8.198;2023-05-10T06:24:32;14.00;99.90
47162;DHT22;32921;53.256;8.198;2023-05-10T06:26:58;13.90;99.90
47162;DHT22;32921;53.256;8.198;2023-05-10T06:29:25;13.90;99.90
47162;DHT22;32921;53.256;8.198;2023-05-10T06:31:51;13.80;99.90
47162;DHT22;32921;53.256;8.198;2023-05-10T06:34:17;13.80;99.90
47162;DHT22;32921;53.256;8.198;2023-05-10T06:36:42;13.90;99.90
47162;DHT22;32921;53.256;8.198;2023-05-10T06:39:08;14.10;99.90
47162;DHT22;32921;53.256;8.198;2023-05-10T06:41:33;14.20;99.90
47162;DHT22;32921;53.256;8.198;2023-05-10T06:43:59;14.30;99.90
47162;DHT22;32921;53.256;8.198;2023-05-10T06:46:24;14.30;99.90
47162;DHT22;32921;53.256;8.198;2023-05-10T06:48:50;14.20;99.90
47162;DHT22;32921;53.256;8.198;2023-05-10T06:51:15;14.10;99.90
47162;DHT22;32921;53.256;8.198;2023-05-10T06:53:41;14.10;99.90
47162;DHT22;32921;53.256;8.198;2023-05-10T06:56:06;14.30;99.90
47162;DHT22;32921;53.256;8.198;2023-05-10T06:58:32;14.40;99.90
47162;DHT22;32921;53.256;8.198;2023-05-10T07:01:07;14.50;99.90
47162;DHT22;32921;53.256;8.198;2023-05-10T07:03:32;14.40;99.90
47162;DHT22;32921;53.256;8.198;2023-05-10T07:06:02;14.40;99.90
47162;DHT22;32921;53.256;8.198;2023-05-10T07:08:30;14.30;99.90
47162;DHT22;32921;53.256;8.198;2023-05-10T07:11:06;14.30;99.90
47162;DHT22;32921;53.256;8.198;2023-05-10T07:13:34;14.40;99.90
47162;DHT22;32921;53.256;8.198;2023-05-10T07:16:00;14.50;99.90
47162;DHT22;32921;53.256;8.198;2023-05-10T07:18:27;14.40;99.90
47162;DHT22;32921;53.256;8.198;2023-05-10T07:20:53;14.50;99.90
47162;DHT22;32921;53.256;8.198;2023-05-10T07:23:18;14.40;99.90
47162;DHT22;32921;53.256;8.198;2023-05-10T07:25:46;14.20;99.90
47162;DHT22;32921;53.256;8.198;2023-05-10T07:28:12;14.40;99.90
47162;DHT22;32921;53.256;8.198;2023-05-10T07:30:37;14.60;99.90
47162;DHT22;32921;53.256;8.198;2023-05-10T07:33:03;14.70;99.90
47162;DHT22;32921;53.256;8.198;2023-05-10T07:35:28;14.80;99.90
47162;DHT22;32921;53.256;8.198;2023-05-10T07:37:54;14.60;99.90
47162;DHT22;32921;53.256;8.198;2023-05-10T07:40:20;14.60;99.90
47162;DHT22;32921;53.256;8.198;2023-05-10T07:42:45;14.60;99.90
47162;DHT22;32921;53.256;8.198;2023-05-10T07:45:11;14.70;99.90
47162;DHT22;32921;53.256;8.198;2023-05-10T07:47:36;14.50;99.90
47162;DHT22;32921;53.256;8.198;2023-05-10T07:50:02;14.50;99.90
47162;DHT22;32921;53.256;8.198;2023-05-10T07:52:27;14.50;99.90
47162;DHT22;32921;53.256;8.198;2023-05-10T07:54:53;14.50;99.90
47162;DHT22;32921;53.256;8.198;2023-05-10T07:57:18;14.60;99.90
47162;DHT22;32921;53.256;8.198;2023-05-10T07:59:44;14.60;99.90
47162;DHT22;32921;53.256;8.198;2023-05-10T08:02:10;14.60;99.90
47162;DHT22;32921;53.256;8.198;2023-05-10T08:04:36;14.60;99.90
47162;DHT22;32921;53.256;8.198;2023-05-10T08:07:01;14.50;99.90
47162;DHT22;32921;53.256;8.198;2023-05-10T08:09:27;14.50;99.90
47162;DHT22;32921;53.256;8.198;2023-05-10T08:11:52;14.60;99.90
47162;DHT22;32921;53.256;8.198;2023-05-10T08:14:18;14.50;99.90
47162;DHT22;32921;53.256;8.198;2023-05-10T08:16:44;14.30;99.90
47162;DHT22;32921;53.256;8.198;2023-05-10T08:19:09;14.10;99.90
47162;DHT22;32921;53.256;8.198;2023-05-10T08:21:35;14.10;99.90
47162;DHT22;32921;53.256;8.198;2023-05-10T08:24:01;14.20;99.90
47162;DHT22;32921;53.256;8.198;2023-05-10T08:26:27;14.40;99.90
47162;DHT22;32921;53.256;8.198;2023-05-10T08:28:52;14.70;99.90
47162;DHT22;32921;53.256;8.198;2023-05-10T08:31:18;14.80;99.90
47162;DHT22;32921;53.256;8.198;2023-05-10T08:33:44;15.00;99.90
47162;DHT22;32921;53.256;8.198;2023-05-10T08:36:09;15.10;99.90
47162;DHT22;32921;53.256;8.198;2023-05-10T08:38:35;15.10;99.90
47162;DHT22;32921;53.256;8.198;2023-05-10T08:41:02;15.40;99.90
47162;DHT22;32921;53.256;8.198;2023-05-10T08:43:29;15.50;99.90
47162;DHT22;32921;53.256;8.198;2023-05-10T08:45:55;15.30;99.90
47162;DHT22;32921;53.256;8.198;2023-05-10T08:48:23;15.50;99.90
47162;DHT22;32921;53.256;8.198;2023-05-10T08:50:52;15.40;99.90
47162;DHT22;32921;53.256;8.198;2023-05-10T08:53:20;15.20;99.90
47162;DHT22;32921;53.256;8.198;2023-05-10T08:55:46;15.00;99.90
47162;DHT22;32921;53.256;8.198;2023-05-10T08:58:12;14.90;99.90
47162;DHT22;32921;53.256;8.198;2023-05-10T09:00:37;14.90;99.90
47162;DHT22;32921;53.256;8.198;2023-05-10T09:03:04;14.90;99.90
47162;DHT22;32921;53.256;8.198;2023-05-10T09:05:30;15.10;99.90
47162;DHT22;32921;53.256;8.198;2023-05-10T09:07:56;15.20;99.90
47162;DHT22;32921;53.256;8.198;2023-05-10T09:10:22;15.30;99.90
47162;DHT22;32921;53.256;8.198;2023-05-10T09:12:51;15.50;99.90
47162;DHT22;32921;53.256;8.198;2023-05-10T09:15:17;15.90;99.90
47162;DHT22;32921;53.256;8.198;2023-05-10T09:17:44;15.80;99.90
47162;DHT22;32921;53.256;8.198;2023-05-10T09:20:10;15.80;99.90
47162;DHT22;32921;53.256;8.198;2023-05-10T09:22:36;15.80;99.90
47162;DHT22;32921;53.256;8.198;2023-05-10T09:25:10;15.60;99.90
47162;DHT22;32921;53.256;8.198;2023-05-10T09:27:37;15.60;99.90
47162;DHT22;32921;53.256;8.198;2023-05-10T09:30:04;15.60;99.90
47162;DHT22;32921;53.256;8.198;2023-05-10T09:32:43;15.80;99.90
47162;DHT22;32921;53.256;8.198;2023-05-10T09:35:14;15.90;99.90
47162;DHT22;32921;53.256;8.198;2023-05-10T09:37:44;16.00;99.90
47162;DHT22;32921;53.256;8.198;2023-05-10T09:40:13;16.30;99.90
47162;DHT22;32921;53.256;8.198;2023-05-10T09:42:38;16.60;99.90
47162;DHT22;32921;53.256;8.198;2023-05-10T09:45:04;17.00;99.90
47162;DHT22;32921;53.256;8.198;2023-05-10T09:47:36;17.00;99.90
47162;DHT22;32921;53.256;8.198;2023-05-10T09:50:03;16.40;99.90
47162;DHT22;32921;53.256;8.198;2023-05-10T09:52:52;15.80;99.90
47162;DHT22;32921;53.256;8.198;2023-05-10T09:55:20;15.50;99.90
47162;DHT22;32921;53.256;8.198;2023-05-10T09:57:47;15.50;99.90
47162;DHT22;32921;53.256;8.198;2023-05-10T10:00:20;15.60;99.90
47162;DHT22;32921;53.256;8.198;2023-05-10T10:02:57;15.90;99.90
47162;DHT22;32921;53.256;8.198;2023-05-10T10:05:34;16.40;99.90
47162;DHT22;32921;53.256;8.198;2023-05-10T10:08:02;16.70;99.90
47162;DHT22;32921;53.256;8.198;2023-05-10T10:10:28;17.20;99.90
47162;DHT22;32921;53.256;8.198;2023-05-10T10:12:55;17.50;99.90
47162;DHT22;32921;53.256;8.198;2023-05-10T10:15:21;17.60;99.90
47162;DHT22;32921;53.256;8.198;2023-05-10T10:17:48;17.20;99.90
47162;DHT22;32921;53.256;8.198;2023-05-10T10:20:14;16.70;99.90
47162;DHT22;32921;53.256;8.198;2023-05-10T10:22:40;16.30;99.90
47162;DHT22;32921;53.256;8.198;2023-05-10T10:25:07;16.30;99.90
47162;DHT22;32921;53.256;8.198;2023-05-10T10:35:32;18.00;99.90
47162;DHT22;32921;53.256;8.198;2023-05-10T10:37:58;17.80;99.90
47162;DHT22;32921;53.256;8.198;2023-05-10T10:40:31;17.80;99.90
47162;DHT22;32921;53.256;8.198;2023-05-10T10:42:57;17.70;99.90
47162;DHT22;32921;53.256;8.198;2023-05-10T10:45:24;17.60;99.90
47162;DHT22;32921;53.256;8.198;2023-05-10T10:48:20;17.90;99.90
47162;DHT22;32921;53.256;8.198;2023-05-10T10:50:46;17.60;99.90
47162;DHT22;32921;53.256;8.198;2023-05-10T10:53:12;17.50;99.90
47162;DHT22;32921;53.256;8.198;2023-05-10T10:55:48;17.70;99.90
47162;DHT22;32921;53.256;8.198;2023-05-10T10:58:30;18.00;99.90
47162;DHT22;32921;53.256;8.198;2023-05-10T11:01:34;17.60;99.90
47162;DHT22;32921;53.256;8.198;2023-05-10T11:06:33;17.40;99.90
47162;DHT22;32921;53.256;8.198;2023-05-10T11:08:59;17.10;99.90
47162;DHT22;32921;53.256;8.198;2023-05-10T11:11:25;16.80;99.90
47162;DHT22;32921;53.256;8.198;2023-05-10T11:13:51;16.70;99.90
47162;DHT22;32921;53.256;8.198;2023-05-10T11:16:21;16.20;99.90
47162;DHT22;32921;53.256;8.198;2023-05-10T11:19:03;15.60;99.90
47162;DHT22;32921;53.256;8.198;2023-05-10T11:21:33;15.50;99.90
47162;DHT22;32921;53.256;8.198;2023-05-10T11:24:00;15.50;99.90
47162;DHT22;32921;53.256;8.198;2023-05-10T11:26:34;15.20;99.90
47162;DHT22;32921;53.256;8.198;2023-05-10T11:29:00;15.00;99.90
47162;DHT22;32921;53.256;8.198;2023-05-10T11:31:27;14.90;99.90
47162;DHT22;32921;53.256;8.198;2023-05-10T11:33:58;14.90;99.90
47162;DHT22;32921;53.256;8.198;2023-05-10T11:36:26;14.90;99.90
47162;DHT22;32921;53.256;8.198;2023-05-10T11:38:53;15.20;99.90
47162;DHT22;32921;53.256;8.198;2023-05-10T11:41:20;15.10;99.90
47162;DHT22;32921;53.256;8.198;2023-05-10T11:43:52;15.10;99.90
47162;DHT22;32921;53.256;8.198;2023-05-10T11:46:20;15.40;99.90
47162;DHT22;32921;53.256;8.198;2023-05-10T11:48:47;15.30;99.90
47162;DHT22;32921;53.256;8.198;2023-05-10T11:51:15;15.20;99.90
47162;DHT22;32921;53.256;8.198;2023-05-10T11:53:40;15.00;99.90
47162;DHT22;32921;53.256;8.198;2023-05-10T11:56:07;14.90;99.90
47162;DHT22;32921;53.256;8.198;2023-05-10T11:58:34;14.80;99.90
47162;DHT22;32921;53.256;8.198;2023-05-10T12:01:00;14.80;99.90
47162;DHT22;32921;53.256;8.198;2023-05-10T12:03:27;14.70;99.90
47162;DHT22;32921;53.256;8.198;2023-05-10T12:05:54;14.70;99.90
47162;DHT22;32921;53.256;8.198;2023-05-10T12:08:22;14.70;99.90
47162;DHT22;32921;53.256;8.198;2023-05-10T12:10:47;14.70;99.90
47162;DHT22;32921;53.256;8.198;2023-05-10T12:13:14;14.70;99.90
47162;DHT22;32921;53.256;8.198;2023-05-10T12:15:41;14.50;99.90
47162;DHT22;32921;53.256;8.198;2023-05-10T12:18:11;14.50;99.90
47162;DHT22;32921;53.256;8.198;2023-05-10T12:20:37;14.30;99.90
47162;DHT22;32921;53.256;8.198;2023-05-10T12:23:03;14.40;99.90
47162;DHT22;32921;53.256;8.198;2023-05-10T12:25:36;14.50;99.90
47162;DHT22;32921;53.256;8.198;2023-05-10T12:28:07;14.70;99.90
47162;DHT22;32921;53.256;8.198;2023-05-10T12:30:34;14.70;99.90
47162;DHT22;32921;53.256;8.198;2023-05-10T12:35:29;15.10;99.90
47162;DHT22;32921;53.256;8.198;2023-05-10T12:37:55;15.30;99.90
47162;DHT22;32921;53.256;8.198;2023-05-10T12:40:20;15.10;99.90
47162;DHT22;32921;53.256;8.198;2023-05-10T12:42:46;15.10;99.90
47162;DHT22;32921;53.256;8.198;2023-05-10T12:45:12;15.40;99.90
47162;DHT22;32921;53.256;8.198;2023-05-10T12:47:38;15.40;99.90
47162;DHT22;32921;53.256;8.198;2023-05-10T12:50:04;15.40;99.90
47162;DHT22;32921;53.256;8.198;2023-05-10T12:52:31;15.10;99.90
47162;DHT22;32921;53.256;8.198;2023-05-10T12:55:00;15.10;99.90
47162;DHT22;32921;53.256;8.198;2023-05-10T12:57:26;15.30;99.90
47162;DHT22;32921;53.256;8.198;2023-05-10T12:59:51;15.50;99.90
47162;DHT22;32921;53.256;8.198;2023-05-10T13:02:17;15.60;99.90
47162;DHT22;32921;53.256;8.198;2023-05-10T13:04:44;15.70;99.90
47162;DHT22;32921;53.256;8.198;2023-05-10T13:07:10;15.70;99.90
47162;DHT22;32921;53.256;8.198;2023-05-10T13:09:35;15.80;99.90
47162;DHT22;32921;53.256;8.198;2023-05-10T13:12:01;15.90;99.90
47162;DHT22;32921;53.256;8.198;2023-05-10T13:14:27;16.20;99.90
47162;DHT22;32921;53.256;8.198;2023-05-10T13:16:53;16.20;99.90
47162;DHT22;32921;53.256;8.198;2023-05-10T13:19:19;16.40;99.90
47162;DHT22;32921;53.256;8.198;2023-05-10T13:21:44;16.80;99.90
47162;DHT22;32921;53.256;8.198;2023-05-10T13:24:11;17.10;99.90
47162;DHT22;32921;53.256;8.198;2023-05-10T13:26:39;17.40;99.90
47162;DHT22;32921;53.256;8.198;2023-05-10T13:29:05;17.70;99.90
47162;DHT22;32921;53.256;8.198;2023-05-10T13:31:30;18.10;99.90
47162;DHT22;32921;53.256;8.198;2023-05-10T13:33:56;18.50;99.90
47162;DHT22;32921;53.256;8.198;2023-05-10T13:36:22;18.40;99.90
47162;DHT22;32921;53.256;8.198;2023-05-10T13:38:48;18.20;99.90
47162;DHT22;32921;53.256;8.198;2023-05-10T13:41:13;17.70;99.90
47162;DHT22;32921;53.256;8.198;2023-05-10T13:43:39;17.40;99.90
47162;DHT22;32921;53.256;8.198;2023-05-10T13:46:05;17.00;99.90
47162;DHT22;32921;53.256;8.198;2023-05-10T13:48:30;16.70;99.90
47162;DHT22;32921;53.256;8.198;2023-05-10T13:50:56;16.50;99.90
47162;DHT22;32921;53.256;8.198;2023-05-10T13:53:22;16.30;99.90
47162;DHT22;32921;53.256;8.198;2023-05-10T13:55:48;16.10;99.90
47162;DHT22;32921;53.256;8.198;2023-05-10T13:58:13;15.90;99.90
47162;DHT22;32921;53.256;8.198;2023-05-10T14:00:39;15.70;99.90
47162;DHT22;32921;53.256;8.198;2023-05-10T14:03:04;15.70;99.90
47162;DHT22;32921;53.256;8.198;2023-05-10T14:05:31;15.70;99.90
47162;DHT22;32921;53.256;8.198;2023-05-10T14:07:57;15.60;99.90
47162;DHT22;32921;53.256;8.198;2023-05-10T14:10:22;15.70;99.90
47162;DHT22;32921;53.256;8.198;2023-05-10T14:12:49;15.80;99.90
47162;DHT22;32921;53.256;8.198;2023-05-10T14:15:15;15.90;99.90
47162;DHT22;32921;53.256;8.198;2023-05-10T14:17:40;16.00;99.90
47162;DHT22;32921;53.256;8.198;2023-05-10T14:20:06;16.10;99.90
47162;DHT22;32921;53.256;8.198;2023-05-10T14:22:32;16.00;99.90
47162;DHT22;32921;53.256;8.198;2023-05-10T14:24:58;16.10;99.90
47162;DHT22;32921;53.256;8.198;2023-05-10T14:27:23;16.30;99.90
47162;DHT22;32921;53.256;8.198;2023-05-10T14:29:49;16.40;99.90
47162;DHT22;32921;53.256;8.198;2023-05-10T14:32:15;16.60;99.90
47162;DHT22;32921;53.256;8.198;2023-05-10T14:34:40;16.70;99.90
47162;DHT22;32921;53.256;8.198;2023-05-10T14:37:06;16.80;99.90
47162;DHT22;32921;53.256;8.198;2023-05-10T14:39:32;16.90;99.90
47162;DHT22;32921;53.256;8.198;2023-05-10T14:41:58;17.00;99.90
47162;DHT22;32921;53.256;8.198;2023-05-10T14:44:24;17.10;99.90
47162;DHT22;32921;53.256;8.198;2023-05-10T14:46:49;17.10;99.90
47162;DHT22;32921;53.256;8.198;2023-05-10T14:49:15;17.20;99.90
47162;DHT22;32921;53.256;8.198;2023-05-10T14:51:40;17.10;99.90
47162;DHT22;32921;53.256;8.198;2023-05-10T14:54:06;16.80;99.90
47162;DHT22;32921;53.256;8.198;2023-05-10T14:56:32;16.50;99.90
47162;DHT22;32921;53.256;8.198;2023-05-10T14:58:57;16.40;99.90
47162;DHT22;32921;53.256;8.198;2023-05-10T15:01:23;16.40;99.90
47162;DHT22;32921;53.256;8.198;2023-05-10T15:03:49;16.50;99.90
47162;DHT22;32921;53.256;8.198;2023-05-10T15:06:15;16.40;99.90
47162;DHT22;32921;53.256;8.198;2023-05-10T15:08:43;16.40;99.90
47162;DHT22;32921;53.256;8.198;2023-05-10T15:11:09;16.50;99.90
47162;DHT22;32921;53.256;8.198;2023-05-10T15:13:35;16.60;99.90
47162;DHT22;32921;53.256;8.198;2023-05-10T15:16:01;16.70;99.90
47162;DHT22;32921;53.256;8.198;2023-05-10T15:18:26;17.00;99.90
47162;DHT22;32921;53.256;8.198;2023-05-10T15:20:52;16.90;99.90
47162;DHT22;32921;53.256;8.198;2023-05-10T15:23:17;17.00;99.90
47162;DHT22;32921;53.256;8.198;2023-05-10T15:25:43;17.10;99.90
47162;DHT22;32921;53.256;8.198;2023-05-10T15:28:09;17.30;99.90
47162;DHT22;32921;53.256;8.198;2023-05-10T15:30:34;17.40;99.90
47162;DHT22;32921;53.256;8.198;2023-05-10T15:33:00;17.80;99.90
47162;DHT22;32921;53.256;8.198;2023-05-10T15:35:26;18.00;99.90
47162;DHT22;32921;53.256;8.198;2023-05-10T15:37:51;18.40;99.90
47162;DHT22;32921;53.256;8.198;2023-05-10T15:40:17;18.60;99.90
47162;DHT22;32921;53.256;8.198;2023-05-10T15:42:42;18.80;99.90
47162;DHT22;32921;53.256;8.198;2023-05-10T15:45:09;18.80;99.90
47162;DHT22;32921;53.256;8.198;2023-05-10T15:47:35;18.50;99.90
47162;DHT22;32921;53.256;8.198;2023-05-10T15:50:00;18.20;99.90
47162;DHT22;32921;53.256;8.198;2023-05-10T15:52:26;17.70;99.90
47162;DHT22;32921;53.256;8.198;2023-05-10T15:54:51;17.30;99.90
47162;DHT22;32921;53.256;8.198;2023-05-10T15:57:17;17.10;99.90
47162;DHT22;32921;53.256;8.198;2023-05-10T15:59:42;16.80;99.90
47162;DHT22;32921;53.256;8.198;2023-05-10T16:02:08;17.00;99.90
47162;DHT22;32921;53.256;8.198;2023-05-10T16:04:35;17.10;99.90